createdAt,value
2018-07-24T00:02:01.119Z,98484.37
2018-07-24T00:04:13.329Z,98489.45
2018-07-24T00:06:25.623Z,98480.89
2018-07-24T00:08:37.870Z,98482.47
2018-07-24T00:10:50.093Z,98478.52
2018-07-24T00:13:02.263Z,98480.17
2018-07-24T00:15:14.520Z,98475.36
2018-07-24T00:17:26.740Z,98478.59
2018-07-24T00:19:38.963Z,98475.89
2018-07-24T00:21:51.168Z,98471.99
2018-07-24T00:24:03.386Z,98470.75
2018-07-24T00:26:15.676Z,98473.45
2018-07-24T00:28:27.930Z,98473.19
2018-07-24T00:30:40.210Z,98474.77
2018-07-24T00:32:52.414Z,98470.61
2018-07-24T00:35:04.702Z,98460.84
2018-07-24T00:37:16.898Z,98465.61
2018-07-24T00:39:29.154Z,98464.45
2018-07-24T00:41:41.374Z,98464.45
2018-07-24T00:43:53.594Z,98463.22
2018-07-24T00:46:05.863Z,98463.14
2018-07-24T00:48:18.079Z,98458.90
2018-07-24T00:50:30.334Z,98454.50
2018-07-24T00:52:42.647Z,98452.14
2018-07-24T00:54:54.903Z,98448.01
2018-07-24T00:57:07.237Z,98446.42
2018-07-24T00:59:19.588Z,98444.48
2018-07-24T01:01:31.854Z,98446.42
2018-07-24T01:03:44.095Z,98444.25
2018-07-24T01:05:56.364Z,98443.88
2018-07-24T01:08:08.607Z,98443.20
2018-07-24T01:10:20.863Z,98441.62
2018-07-24T01:12:33.169Z,98437.52
2018-07-24T01:14:45.405Z,98436.92
2018-07-24T01:16:57.699Z,98441.42
2018-07-24T01:19:09.938Z,98437.70
2018-07-24T01:21:22.184Z,98441.27
2018-07-24T01:23:35.243Z,98433.75
2018-07-24T01:25:47.474Z,98431.73
2018-07-24T01:27:59.746Z,98429.59
2018-07-24T01:30:11.990Z,98429.86
2018-07-24T01:32:24.275Z,98429.30
2018-07-24T01:34:36.569Z,98435.09
2018-07-24T01:36:48.808Z,98432.65
2018-07-24T01:39:01.088Z,98427.66
2018-07-24T01:41:13.308Z,98425.02
2018-07-24T01:43:25.550Z,98430.02
2018-07-24T01:45:37.766Z,98424.76
2018-07-24T01:47:49.986Z,98425.73
2018-07-24T01:50:02.330Z,98422.77
2018-07-24T01:52:14.565Z,98429.04
2018-07-24T01:54:26.812Z,98420.59
2018-07-24T01:56:39.094Z,98428.28
2018-07-24T01:58:51.311Z,98423.84
2018-07-24T02:01:03.555Z,98419.11
2018-07-24T02:03:15.811Z,98421.17
2018-07-24T02:05:28.115Z,98422.89
2018-07-24T02:07:40.897Z,98423.55
2018-07-24T02:09:53.115Z,98432.55
2018-07-24T02:12:05.383Z,98430.32
2018-07-24T02:14:17.656Z,98430.89
2018-07-24T02:16:29.898Z,98425.98
2018-07-24T02:18:42.110Z,98422.67
2018-07-24T02:20:54.286Z,98421.92
2018-07-24T02:23:06.568Z,98417.19
2018-07-24T02:25:18.771Z,98413.64
2018-07-24T02:27:31.079Z,98417.16
2018-07-24T02:29:43.362Z,98411.19
2018-07-24T02:31:55.633Z,98415.70
2018-07-24T02:34:07.887Z,98409.70
2018-07-24T02:36:20.088Z,98410.54
2018-07-24T02:38:32.372Z,98405.63
2018-07-24T02:40:44.661Z,98406.59
2018-07-24T02:42:56.927Z,98415.53
2018-07-24T02:45:09.204Z,98407.31
2018-07-24T02:47:21.427Z,98411.59
2018-07-24T02:49:33.709Z,98402.83
2018-07-24T02:51:45.950Z,98400.95
2018-07-24T02:53:58.238Z,98402.52
2018-07-24T02:56:10.482Z,98400.17
2018-07-24T02:58:22.755Z,98403.26
2018-07-24T03:00:35.008Z,98401.69
2018-07-24T03:02:47.277Z,98399.78
2018-07-24T03:04:59.578Z,98395.35
2018-07-24T03:07:11.789Z,98395.84
2018-07-24T03:09:24.044Z,98400.60
2018-07-24T03:11:36.531Z,98395.61
2018-07-24T03:13:48.780Z,98405.42
2018-07-24T03:16:01.008Z,98403.54
2018-07-24T03:18:13.222Z,98403.40
2018-07-24T03:20:25.452Z,98403.28
2018-07-24T03:22:37.676Z,98397.06
2018-07-24T03:24:49.975Z,98398.23
2018-07-24T03:27:02.231Z,98396.09
2018-07-24T03:29:15.174Z,98396.58
2018-07-24T03:31:27.397Z,98396.15
2018-07-24T03:33:39.631Z,98391.75
2018-07-24T03:35:51.933Z,98395.00
2018-07-24T03:38:04.186Z,98391.80
2018-07-24T03:40:16.454Z,98398.63
2018-07-24T03:42:28.671Z,98396.39
2018-07-24T03:44:40.911Z,98393.05
2018-07-24T03:46:53.955Z,98391.77
2018-07-24T03:49:06.711Z,98390.59
2018-07-24T03:51:19.004Z,98391.31
2018-07-24T03:53:31.338Z,98387.97
2018-07-24T03:55:43.604Z,98390.36
2018-07-24T03:57:55.941Z,98393.47
2018-07-24T04:00:08.185Z,98395.27
2018-07-24T04:02:21.315Z,98394.78
2018-07-24T04:04:33.571Z,98393.56
2018-07-24T04:06:45.811Z,98396.09
2018-07-24T04:08:58.035Z,98401.34
2018-07-24T04:11:10.276Z,98401.58
2018-07-24T04:13:22.500Z,98394.63
2018-07-24T04:15:34.719Z,98398.45
2018-07-24T04:17:47.981Z,98402.95
2018-07-24T04:20:00.209Z,98397.55
2018-07-24T04:22:12.444Z,98403.36
2018-07-24T04:24:25.392Z,98398.71
2018-07-24T04:26:37.642Z,98401.02
2018-07-24T04:28:49.868Z,98396.59
2018-07-24T04:31:02.170Z,98401.02
2018-07-24T04:33:14.458Z,98404.84
2018-07-24T04:35:26.787Z,98401.34
2018-07-24T04:37:39.030Z,98402.00
2018-07-24T04:39:51.318Z,98402.08
2018-07-24T04:42:03.515Z,98393.73
2018-07-24T04:44:15.746Z,98387.81
2018-07-24T04:46:27.940Z,98392.14
2018-07-24T04:48:40.225Z,98387.09
2018-07-24T04:50:52.574Z,98387.24
2018-07-24T04:53:05.136Z,98387.63
2018-07-24T04:55:17.398Z,98389.53
2018-07-24T04:57:29.667Z,98379.51
2018-07-24T04:59:41.955Z,98380.96
2018-07-24T05:01:54.245Z,98385.00
2018-07-24T05:04:06.592Z,98385.39
2018-07-24T05:06:18.922Z,98382.16
2018-07-24T05:08:31.140Z,98392.61
2018-07-24T05:10:44.397Z,98381.66
2018-07-24T05:12:57.121Z,98386.00
2018-07-24T05:15:09.380Z,98384.67
2018-07-24T05:17:21.639Z,98388.12
2018-07-24T05:19:33.963Z,98385.59
2018-07-24T05:21:46.223Z,98386.44
2018-07-24T05:23:58.461Z,98387.57
2018-07-24T05:26:10.703Z,98383.43
2018-07-24T05:28:22.947Z,98386.23
2018-07-24T05:30:35.249Z,98385.06
2018-07-24T05:32:47.499Z,98390.78
2018-07-24T05:34:59.725Z,98387.73
2018-07-24T05:37:12.930Z,98389.34
2018-07-24T05:39:25.164Z,98392.28
2018-07-24T05:41:37.415Z,98388.53
2018-07-24T05:43:49.666Z,98391.41
2018-07-24T05:46:01.934Z,98389.83
2018-07-24T05:48:14.724Z,98387.09
2018-07-24T05:50:26.964Z,98383.86
2018-07-24T05:52:39.192Z,98388.55
2018-07-24T05:54:51.439Z,98384.62
2018-07-24T05:57:03.729Z,98386.98
2018-07-24T05:59:15.991Z,98384.57
2018-07-24T06:01:28.271Z,98382.12
2018-07-24T06:03:40.632Z,98377.37
2018-07-24T06:05:52.884Z,98380.95
2018-07-24T06:08:05.155Z,98379.04
2018-07-24T06:10:17.388Z,98383.41
2018-07-24T06:12:30.190Z,98382.95
2018-07-24T06:14:43.039Z,98382.19
2018-07-24T06:16:55.410Z,98376.66
2018-07-24T06:19:07.669Z,98378.66
2018-07-24T06:21:19.916Z,98377.03
2018-07-24T06:23:32.328Z,98380.39
2018-07-24T06:25:44.533Z,98376.51
2018-07-24T06:27:57.105Z,98378.69
2018-07-24T06:30:09.406Z,98383.67
2018-07-24T06:32:21.625Z,98383.37
2018-07-24T06:34:33.880Z,98382.55
2018-07-24T06:36:46.111Z,98381.92
2018-07-24T06:38:58.388Z,98381.78
2018-07-24T06:41:10.612Z,98376.48
2018-07-24T06:43:22.870Z,98375.05
2018-07-24T06:45:35.496Z,98372.25
2018-07-24T06:47:47.731Z,98371.58
2018-07-24T06:50:00.099Z,98370.41
2018-07-24T06:52:12.320Z,98371.38
2018-07-24T06:54:24.692Z,98369.87
2018-07-24T06:56:36.991Z,98363.72
2018-07-24T06:58:49.183Z,98365.66
2018-07-24T07:01:01.472Z,98365.61
2018-07-24T07:03:13.749Z,98362.17
2018-07-24T07:05:26.048Z,98355.77
2018-07-24T07:07:38.604Z,98358.61
2018-07-24T07:09:50.824Z,98357.77
2018-07-24T07:12:03.116Z,98350.80
2018-07-24T07:14:15.384Z,98356.80
2018-07-24T07:16:27.622Z,98361.60
2018-07-24T07:18:39.921Z,98346.95
2018-07-24T07:20:52.179Z,98353.28
2018-07-24T07:23:04.427Z,98353.32
2018-07-24T07:25:16.673Z,98354.45
2018-07-24T07:27:28.935Z,98353.77
2018-07-24T07:29:41.159Z,98358.35
2018-07-24T07:31:53.421Z,98350.44
2018-07-24T07:34:05.808Z,98347.70
2018-07-24T07:36:18.099Z,98348.77
2018-07-24T07:38:30.315Z,98345.33
2018-07-24T07:40:42.655Z,98341.00
2018-07-24T07:42:54.955Z,98344.06
2018-07-24T07:45:07.203Z,98342.23
2018-07-24T07:47:19.443Z,98351.47
2018-07-24T07:49:31.664Z,98348.53
2018-07-24T07:51:43.896Z,98341.59
2018-07-24T07:53:59.834Z,98341.39
2018-07-24T07:56:12.133Z,98343.27
2018-07-24T07:58:24.446Z,98339.01
2018-07-24T08:00:36.707Z,98338.94
2018-07-24T08:02:48.996Z,98340.47
2018-07-24T08:05:01.629Z,98336.05
2018-07-24T08:07:13.866Z,98335.12
2018-07-24T08:09:26.086Z,98335.56
2018-07-24T08:11:38.308Z,98336.52
2018-07-24T08:13:50.535Z,98335.73
2018-07-24T08:16:02.828Z,98329.66
2018-07-24T08:18:15.027Z,98324.30
2018-07-24T08:20:27.283Z,98323.59
2018-07-24T08:22:39.546Z,98322.73
2018-07-24T08:24:51.990Z,98325.72
2018-07-24T08:27:04.350Z,98319.34
2018-07-24T08:29:16.608Z,98315.13
2018-07-24T08:31:28.844Z,98319.44
2018-07-24T08:33:41.155Z,98321.92
2018-07-24T08:35:53.381Z,98321.29
2018-07-24T08:38:05.775Z,98319.42
2018-07-24T08:40:18.117Z,98317.44
2018-07-24T08:42:30.396Z,98314.34
2018-07-24T08:44:42.656Z,98311.34
2018-07-24T08:46:54.902Z,98315.61
2018-07-24T08:49:07.211Z,98311.36
2018-07-24T08:51:19.415Z,98309.77
2018-07-24T08:53:32.040Z,98312.38
2018-07-24T08:55:44.187Z,98311.80
2018-07-24T08:57:56.288Z,98307.23
2018-07-24T09:00:08.560Z,98311.64
2018-07-24T09:02:20.831Z,98306.21
2018-07-24T09:04:33.072Z,98306.28
2018-07-24T09:06:45.446Z,98310.03
2018-07-24T09:08:57.735Z,98302.11
2018-07-24T09:11:09.967Z,98305.18
2018-07-24T09:13:22.209Z,98306.61
2018-07-24T09:15:34.536Z,98303.55
2018-07-24T09:17:46.701Z,98303.35
2018-07-24T09:19:58.989Z,98297.28
2018-07-24T09:22:11.251Z,98294.49
2018-07-24T09:24:23.487Z,98294.03
2018-07-24T09:26:35.710Z,98294.69
2018-07-24T09:28:48.001Z,98294.22
2018-07-24T09:31:00.298Z,98295.51
2018-07-24T09:33:12.550Z,98293.44
2018-07-24T09:35:24.871Z,98295.89
2018-07-24T09:37:37.070Z,98296.94
2018-07-24T09:39:49.324Z,98294.11
2018-07-24T09:42:01.593Z,98293.82
2018-07-24T09:44:13.879Z,98296.06
2018-07-24T09:46:26.123Z,98293.33
2018-07-24T09:48:38.619Z,98290.97
2018-07-24T09:50:50.892Z,98288.28
2018-07-24T09:53:03.102Z,98285.48
2018-07-24T09:55:15.359Z,98288.59
2018-07-24T09:57:27.573Z,98279.59
2018-07-24T09:59:39.832Z,98286.61
2018-07-24T10:01:52.163Z,98281.46
2018-07-24T10:04:04.555Z,98280.94
2018-07-24T10:06:16.811Z,98273.87
2018-07-24T10:08:29.051Z,98272.21
2018-07-24T10:10:41.308Z,98276.23
2018-07-24T10:12:53.677Z,98278.11
2018-07-24T10:15:05.883Z,98274.66
2018-07-24T10:17:18.181Z,98278.39
2018-07-24T10:19:30.449Z,98272.27
2018-07-24T10:21:42.678Z,98272.27
2018-07-24T10:23:54.979Z,98261.70
2018-07-24T10:26:07.268Z,98262.97
2018-07-24T10:28:19.525Z,98260.59
2018-07-24T10:30:31.800Z,98259.98
2018-07-24T10:32:44.028Z,98256.71
2018-07-24T10:34:56.364Z,98253.04
2018-07-24T10:37:09.007Z,98257.89
2018-07-24T10:39:21.250Z,98244.31
2018-07-24T10:41:33.503Z,98245.73
2018-07-24T10:43:45.744Z,98248.13
2018-07-24T10:45:58.013Z,98246.68
2018-07-24T10:48:10.348Z,98247.52
2018-07-24T10:50:22.603Z,98240.93
2018-07-24T10:52:34.946Z,98249.72
2018-07-24T10:54:47.314Z,98236.00
2018-07-24T10:56:59.595Z,98238.07
2018-07-24T10:59:11.882Z,98233.59
2018-07-24T11:01:24.179Z,98232.29
2018-07-24T11:03:36.633Z,98231.72
2018-07-24T11:05:48.953Z,98233.60
2018-07-24T11:08:01.168Z,98238.33
2018-07-24T11:10:13.426Z,98233.36
2018-07-24T11:12:25.718Z,98228.05
2018-07-24T11:14:38.047Z,98227.84
2018-07-24T11:16:50.314Z,98225.15
2018-07-24T11:19:02.524Z,98231.66
2018-07-24T11:21:14.771Z,98231.66
2018-07-24T11:23:27.077Z,98224.75
2018-07-24T11:25:39.897Z,98225.30
2018-07-24T11:27:52.182Z,98216.30
2018-07-24T11:30:05.158Z,98212.63
2018-07-24T11:32:17.649Z,98210.81
2018-07-24T11:34:29.902Z,98212.30
2018-07-24T11:36:42.176Z,98209.45
2018-07-24T11:38:54.464Z,98211.77
2018-07-24T11:41:06.746Z,98209.30
2018-07-24T11:43:19.027Z,98204.70
2018-07-24T11:45:31.266Z,98204.72
2018-07-24T11:47:43.546Z,98206.88
2018-07-24T11:49:55.818Z,98208.83
2018-07-24T11:52:08.063Z,98202.05
2018-07-24T11:54:20.308Z,98202.20
2018-07-24T11:56:32.575Z,98194.82
2018-07-24T11:58:44.868Z,98206.15
2018-07-24T12:00:57.086Z,98193.50
2018-07-24T12:03:09.404Z,98193.59
2018-07-24T12:05:21.687Z,98193.83
2018-07-24T12:07:33.929Z,98185.81
2018-07-24T12:09:46.102Z,98183.16
2018-07-24T12:11:58.371Z,98182.91
2018-07-24T12:14:10.733Z,98188.48
2018-07-24T12:16:23.024Z,98172.72
2018-07-24T12:18:35.315Z,98175.92
2018-07-24T12:20:47.580Z,98174.05
2018-07-24T12:22:59.864Z,98169.67
2018-07-24T12:25:12.082Z,98172.19
2018-07-24T12:27:24.351Z,98170.56
2018-07-24T12:29:36.635Z,98162.50
2018-07-24T12:31:48.871Z,98167.53
2018-07-24T12:34:01.121Z,98168.34
2018-07-24T12:36:13.492Z,98163.14
2018-07-24T12:38:25.645Z,98166.44
2018-07-24T12:40:37.868Z,98162.47
2018-07-24T12:42:50.091Z,98165.45
2018-07-24T12:45:02.376Z,98165.91
2018-07-24T12:47:14.654Z,98159.16
2018-07-24T12:49:26.914Z,98161.84
2018-07-24T12:51:39.157Z,98163.92
2018-07-24T12:53:51.408Z,98158.44
2018-07-24T12:56:03.736Z,98156.75
2018-07-24T12:58:16.001Z,98151.98
2018-07-24T13:00:28.294Z,98154.66
2018-07-24T13:02:40.547Z,98161.14
2018-07-24T13:04:52.847Z,98152.80
2018-07-24T13:07:05.159Z,98142.22
2018-07-24T13:09:17.391Z,98150.28
2018-07-24T13:11:29.694Z,98149.88
2018-07-24T13:13:41.974Z,98143.83
2018-07-24T13:15:54.238Z,98143.55
2018-07-24T13:18:06.425Z,98138.59
2018-07-24T13:20:18.699Z,98137.50
2018-07-24T13:22:30.927Z,98135.91
2018-07-24T13:24:43.205Z,98127.20
2018-07-24T13:26:55.370Z,98123.47
2018-07-24T13:29:07.635Z,98123.83
2018-07-24T13:31:19.882Z,98119.60
2018-07-24T13:33:32.104Z,98118.42
2018-07-24T13:35:44.403Z,98116.47
2018-07-24T13:37:56.633Z,98114.96
2018-07-24T13:40:08.885Z,98118.49
2018-07-24T13:42:21.175Z,98111.04
2018-07-24T13:44:33.386Z,98118.28
2018-07-24T13:46:45.627Z,98108.28
2018-07-24T13:48:57.832Z,98101.11
2018-07-24T13:51:10.415Z,98109.98
2018-07-24T13:53:22.821Z,98104.84
2018-07-24T13:55:35.056Z,98106.39
2018-07-24T13:57:47.422Z,98109.98
2018-07-24T13:59:59.727Z,98102.21
2018-07-24T14:02:12.033Z,98110.27
2018-07-24T14:04:24.310Z,98105.06
2018-07-24T14:06:36.541Z,98102.67
2018-07-24T14:08:48.822Z,98109.42
2018-07-24T14:11:01.058Z,98106.34
2018-07-24T14:13:13.323Z,98105.54
2018-07-24T14:15:25.560Z,98109.40
2018-07-24T14:17:38.090Z,98104.49
2018-07-24T14:19:50.343Z,98105.85
2018-07-24T14:22:02.652Z,98100.86
2018-07-24T14:24:14.933Z,98095.85
2018-07-24T14:26:27.261Z,98102.33
2018-07-24T14:28:39.514Z,98098.14
2018-07-24T14:30:51.763Z,98099.25
2018-07-24T14:33:04.027Z,98094.64
2018-07-24T14:35:16.358Z,98093.06
2018-07-24T14:37:28.608Z,98095.38
2018-07-24T14:39:40.847Z,98094.86
2018-07-24T14:41:53.051Z,98093.06
2018-07-24T14:44:05.406Z,98091.02
2018-07-24T14:46:17.659Z,98094.28
2018-07-24T14:48:30.240Z,98085.25
2018-07-24T14:50:42.431Z,98084.48
2018-07-24T14:52:54.694Z,98081.28
2018-07-24T14:55:06.967Z,98079.07
2018-07-24T14:57:19.178Z,98077.20
2018-07-24T14:59:31.428Z,98076.55
2018-07-24T15:01:43.674Z,98075.58
2018-07-24T15:03:55.898Z,98072.08
2018-07-24T15:06:08.151Z,98074.84
2018-07-24T15:08:20.443Z,98070.36
2018-07-24T15:10:32.695Z,98072.73
2018-07-24T15:12:44.923Z,98072.36
2018-07-24T15:14:57.223Z,98065.82
2018-07-24T15:17:09.653Z,98069.55
2018-07-24T15:19:21.830Z,98067.16
2018-07-24T15:21:34.051Z,98068.50
2018-07-24T15:23:46.324Z,98067.23
2018-07-24T15:25:58.561Z,98058.37
2018-07-24T15:28:10.836Z,98064.11
2018-07-24T15:30:23.098Z,98060.37
2018-07-24T15:32:35.407Z,98060.70
2018-07-24T15:34:47.673Z,98054.33
2018-07-24T15:36:59.940Z,98057.53
2018-07-24T15:39:13.520Z,98052.74
2018-07-24T15:41:25.811Z,98058.64
2018-07-24T15:43:37.995Z,98053.47
2018-07-24T15:45:50.313Z,98049.94
2018-07-24T15:48:02.511Z,98046.63
2018-07-24T15:50:14.767Z,98044.69
2018-07-24T15:52:27.064Z,98052.13
2018-07-24T15:54:39.259Z,98044.40
2018-07-24T15:56:51.490Z,98043.50
2018-07-24T15:59:03.780Z,98044.68
2018-07-24T16:01:16.004Z,98040.98
2018-07-24T16:03:28.297Z,98045.73
2018-07-24T16:05:40.587Z,98042.47
2018-07-24T16:07:52.833Z,98040.52
2018-07-24T16:10:05.210Z,98033.16
2018-07-24T16:12:17.466Z,98034.10
2018-07-24T16:14:29.688Z,98032.77
2018-07-24T16:16:41.917Z,98028.05
2018-07-24T16:18:54.122Z,98032.31
2018-07-24T16:21:06.509Z,98033.19
2018-07-24T16:23:18.759Z,98038.78
2018-07-24T16:25:31.027Z,98040.06
2018-07-24T16:27:43.239Z,98041.55
2018-07-24T16:29:55.472Z,98036.84
2018-07-24T16:32:07.697Z,98039.31
2018-07-24T16:34:19.926Z,98041.01
2018-07-24T16:36:32.218Z,98040.92
2018-07-24T16:38:44.427Z,98040.92
2018-07-24T16:40:56.673Z,98038.04
2018-07-24T16:43:08.910Z,98043.84
2018-07-24T16:45:21.160Z,98040.93
2018-07-24T16:47:33.392Z,98043.91
2018-07-24T16:49:45.696Z,98041.14
2018-07-24T16:51:57.974Z,98038.70
2018-07-24T16:54:10.207Z,98044.52
2018-07-24T16:56:22.468Z,98048.53
2018-07-24T16:58:34.746Z,98043.75
2018-07-24T17:00:46.959Z,98049.28
2018-07-24T17:02:59.316Z,98040.80
2018-07-24T17:05:11.502Z,98042.06
2018-07-24T17:07:23.726Z,98044.36
2018-07-24T17:09:35.963Z,98043.61
2018-07-24T17:11:48.240Z,98043.52
2018-07-24T17:14:00.599Z,98039.95
2018-07-24T17:16:12.846Z,98050.98
2018-07-24T17:18:25.095Z,98044.28
2018-07-24T17:20:37.366Z,98038.45
2018-07-24T17:22:49.687Z,98042.85
2018-07-24T17:25:02.069Z,98043.00
2018-07-24T17:27:14.272Z,98037.21
2018-07-24T17:29:26.497Z,98044.92
2018-07-24T17:31:38.755Z,98041.34
2018-07-24T17:33:50.996Z,98047.52
2018-07-24T17:36:03.513Z,98050.28
2018-07-24T17:38:15.671Z,98047.61
2018-07-24T17:40:27.981Z,98048.48
2018-07-24T17:42:40.260Z,98053.55
2018-07-24T17:44:52.520Z,98052.58
2018-07-24T17:47:04.824Z,98052.38
2018-07-24T17:49:17.108Z,98049.17
2018-07-24T17:51:29.297Z,98057.44
2018-07-24T17:53:41.589Z,98056.01
2018-07-24T17:55:53.862Z,98053.77
2018-07-24T17:58:06.107Z,98062.98
2018-07-24T18:00:18.405Z,98061.03
2018-07-24T18:02:30.674Z,98065.19
2018-07-24T18:04:42.986Z,98061.08
2018-07-24T18:06:55.270Z,98067.39
2018-07-24T18:09:09.273Z,98065.76
2018-07-24T18:11:21.643Z,98067.23
2018-07-24T18:13:33.939Z,98070.57
2018-07-24T18:15:46.260Z,98071.72
2018-07-24T18:17:58.503Z,98070.81
2018-07-24T18:20:10.711Z,98073.63
2018-07-24T18:22:22.954Z,98071.61
2018-07-24T18:24:35.206Z,98076.47
2018-07-24T18:26:47.535Z,98069.85
2018-07-24T18:28:59.782Z,98076.73
2018-07-24T18:31:12.005Z,98077.09
2018-07-24T18:33:24.364Z,98074.06
2018-07-24T18:35:36.587Z,98076.91
2018-07-24T18:37:48.885Z,98079.30
2018-07-24T18:40:01.119Z,98079.09
2018-07-24T18:42:13.460Z,98083.39
2018-07-24T18:44:25.704Z,98081.75
2018-07-24T18:46:37.979Z,98087.17
2018-07-24T18:48:50.194Z,98089.27
2018-07-24T18:51:02.418Z,98091.30
2018-07-24T18:53:14.718Z,98095.04
2018-07-24T18:55:26.971Z,98093.34
2018-07-24T18:57:39.255Z,98088.41
2018-07-24T18:59:51.620Z,98093.95
2018-07-24T19:02:03.862Z,98095.76
2018-07-24T19:04:16.099Z,98087.12
2018-07-24T19:06:28.439Z,98093.31
2018-07-24T19:08:40.714Z,98097.04
2018-07-24T19:10:52.964Z,98099.22
2018-07-24T19:13:05.193Z,98101.75
2018-07-24T19:15:17.451Z,98099.85
2018-07-24T19:17:29.734Z,98096.39
2018-07-24T19:19:41.980Z,98102.55
2018-07-24T19:21:54.311Z,98105.53
2018-07-24T19:24:06.584Z,98103.83
2018-07-24T19:26:18.827Z,98105.98
2018-07-24T19:28:31.400Z,98111.47
2018-07-24T19:30:43.632Z,98114.31
2018-07-24T19:32:55.878Z,98111.20
2018-07-24T19:35:08.140Z,98112.52
2018-07-24T19:37:20.380Z,98108.70
2018-07-24T19:39:32.624Z,98113.83
2018-07-24T19:41:44.845Z,98116.72
2018-07-24T19:43:57.117Z,98113.81
2018-07-24T19:46:09.359Z,98118.22
2018-07-24T19:48:21.611Z,98120.16
2018-07-24T19:50:33.873Z,98127.11
2018-07-24T19:52:46.115Z,98121.59
2018-07-24T19:54:58.400Z,98129.09
2018-07-24T19:57:10.674Z,98129.46
2018-07-24T19:59:22.928Z,98129.12
2018-07-24T20:01:35.193Z,98132.84
2018-07-24T20:03:47.444Z,98134.07
2018-07-24T20:05:59.663Z,98131.77
2018-07-24T20:08:11.906Z,98140.83
2018-07-24T20:10:24.136Z,98140.48
2018-07-24T20:12:36.347Z,98139.66
2018-07-24T20:14:48.918Z,98140.02
2018-07-24T20:17:01.125Z,98151.03
2018-07-24T20:19:13.394Z,98145.89
2018-07-24T20:21:25.650Z,98144.41
2018-07-24T20:23:38.037Z,98139.73
2018-07-24T20:25:50.251Z,98147.83
2018-07-24T20:28:02.539Z,98148.84
2018-07-24T20:30:14.834Z,98148.44
2018-07-24T20:32:27.090Z,98149.41
2018-07-24T20:34:39.353Z,98147.39
2018-07-24T20:36:51.562Z,98148.22
2018-07-24T20:39:07.331Z,98151.75
2018-07-24T20:41:19.616Z,98148.63
2018-07-24T20:43:31.938Z,98156.32
2018-07-24T20:45:44.187Z,98151.06
2018-07-24T20:47:56.383Z,98152.39
2018-07-24T20:50:08.696Z,98150.94
2018-07-24T20:52:21.014Z,98154.44
2018-07-24T20:54:33.278Z,98150.11
2018-07-24T20:56:45.483Z,98152.92
2018-07-24T20:58:57.766Z,98153.08
2018-07-24T21:01:10.062Z,98158.73
2018-07-24T21:03:22.482Z,98154.27
2018-07-24T21:05:34.676Z,98160.42
2018-07-24T21:07:47.004Z,98157.77
2018-07-24T21:09:59.238Z,98158.78
2018-07-24T21:12:11.487Z,98157.80
2018-07-24T21:14:23.766Z,98158.61
2018-07-24T21:16:36.046Z,98154.16
2018-07-24T21:18:48.544Z,98158.98
2018-07-24T21:21:00.849Z,98162.13
2018-07-24T21:23:13.170Z,98168.09
2018-07-24T21:25:25.416Z,98159.66
2018-07-24T21:27:37.702Z,98165.48
2018-07-24T21:29:49.970Z,98163.82
2018-07-24T21:32:02.264Z,98163.82
2018-07-24T21:34:14.516Z,98166.15
2018-07-24T21:36:26.822Z,98160.53
2018-07-24T21:38:39.124Z,98159.03
2018-07-24T21:40:51.439Z,98164.66
2018-07-24T21:43:03.718Z,98164.52
2018-07-24T21:45:15.990Z,98164.87
2018-07-24T21:47:28.250Z,98163.91
2018-07-24T21:49:40.535Z,98165.87
2018-07-24T21:51:52.835Z,98162.56
2018-07-24T21:54:05.184Z,98167.54
2018-07-24T21:56:17.473Z,98173.67
2018-07-24T21:58:29.699Z,98167.22
2018-07-24T22:00:41.970Z,98170.20
2018-07-24T22:02:54.235Z,98169.20
2018-07-24T22:05:06.468Z,98172.86
2018-07-24T22:07:18.716Z,98168.56
2018-07-24T22:09:30.925Z,98168.89
2018-07-24T22:11:43.191Z,98167.58
2018-07-24T22:13:55.526Z,98168.23
2018-07-24T22:16:07.800Z,98170.73
2018-07-24T22:18:20.044Z,98174.70
2018-07-24T22:20:32.289Z,98178.51
2018-07-24T22:22:44.595Z,98180.80
2018-07-24T22:24:56.863Z,98181.81
2018-07-24T22:27:09.103Z,98184.94
2018-07-24T22:29:21.627Z,98180.14
2018-07-24T22:31:33.859Z,98183.08
2018-07-24T22:33:46.119Z,98186.05
2018-07-24T22:35:58.306Z,98190.33
2018-07-24T22:38:10.611Z,98195.44
2018-07-24T22:40:22.929Z,98192.92
2018-07-24T22:42:35.152Z,98186.98
2018-07-24T22:44:47.380Z,98195.37
2018-07-24T22:46:59.615Z,98188.26
2018-07-24T22:49:11.851Z,98187.25
2018-07-24T22:51:24.104Z,98195.47
2018-07-24T22:53:36.360Z,98187.80
2018-07-24T22:55:48.547Z,98189.09
2018-07-24T22:58:00.726Z,98192.37
2018-07-24T23:00:13.066Z,98190.39
2018-07-24T23:02:25.324Z,98191.03
2018-07-24T23:04:37.642Z,98194.31
2018-07-24T23:06:49.941Z,98198.13
2018-07-24T23:09:02.208Z,98200.77
2018-07-24T23:11:14.506Z,98196.30
2018-07-24T23:13:26.723Z,98192.02
2018-07-24T23:15:38.989Z,98200.56
2018-07-24T23:17:51.162Z,98198.42
2018-07-24T23:20:03.438Z,98195.92
2018-07-24T23:22:15.691Z,98198.86
2018-07-24T23:24:27.947Z,98197.88
2018-07-24T23:26:40.183Z,98198.51
2018-07-24T23:28:52.464Z,98198.70
2018-07-24T23:31:04.767Z,98194.87
2018-07-24T23:33:16.996Z,98196.84
2018-07-24T23:35:29.175Z,98202.37
2018-07-24T23:37:41.410Z,98199.39
2018-07-24T23:39:53.608Z,98199.06
2018-07-24T23:42:05.851Z,98204.14
2018-07-24T23:44:18.022Z,98203.27
2018-07-24T23:46:30.227Z,98207.15
2018-07-24T23:48:42.431Z,98201.52
2018-07-24T23:50:54.680Z,98207.03
2018-07-24T23:53:06.916Z,98204.50
2018-07-24T23:55:19.099Z,98197.75
2018-07-24T23:57:31.306Z,98203.13
2018-07-24T23:59:43.543Z,98200.59
